Date,TemperatureHighF,TemperatureAvgF,TemperatureLowF,DewpointHighF,DewpointAvgF,DewpointLowF,HumidityHigh,HumidityAvg,HumidityLow,PressureMaxIn,PressureMinIn,WindSpeedMaxMPH,WindSpeedAvgMPH,GustSpeedMaxMPH,PrecipitationSumIn
2013-1-1,47.8,32.1,17.4,29.7,20.2,4.1,94,67,18,30.24,30.12,15,5,15,0.01
2013-1-2,53.8,35.6,21.7,26.4,20.8,15.1,88,61,22,30.16,30.05,14,4,14,0.00
2013-1-3,50.4,36.2,23.4,33.5,26.3,18.5,92,69,37,30.23,30.07,22,6,22,0.00
2013-1-4,49.8,35.8,24.6,30.6,26.0,21.9,91,70,37,30.31,30.21,15,4,15,0.00
2013-1-5,60.1,35.5,18.9,33.1,17.3,-0.6,95,61,10,30.34,30.24,12,4,12,0.00
2013-1-6,59.0,37.6,19.8,26.6,16.2,0.7,89,53,10,30.28,30.03,17,5,17,0.00
2013-1-7,57.6,40.1,25.7,27.6,18.6,-1.6,82,50,10,30.03,29.86,16,5,16,0.00
2013-1-8,61.2,42.4,28.4,31.1,20.8,6.2,85,50,12,30.16,29.95,13,5,13,0.00
2013-1-9,63.1,42.1,23.0,29.3,13.4,-3.1,87,42,10,30.29,30.15,16,6,16,0.00
2013-1-10,65.1,46.1,24.6,25.7,10.9,-2.0,76,34,10,30.15,29.92,35,10,35,0.00
2013-1-11,52.3,37.3,20.5,33.6,12.6,-9.4,78,41,10,30.08,29.93,30,12,31,0.00
2013-1-12,40.3,25.0,12.4,13.7,4.7,-10.4,84,49,12,30.11,29.99,30,8,30,0.00
2013-1-13,45.7,25.7,9.0,17.0,-0.2,-15.0,85,44,10,30.11,29.96,21,6,21,0.00
2013-1-14,39.6,25.3,12.2,9.1,-2.5,-16.5,74,37,10,30.16,30.03,24,9,24,0.00
2013-1-15,40.3,23.6,6.3,9.6,-7.5,-19.7,80,33,10,30.32,30.15,15,5,15,0.00
2013-1-16,56.3,33.5,13.8,3.2,-4.5,-16.2,54,23,10,30.37,30.25,22,5,22,0.00
2013-1-17,63.0,41.3,23.2,8.4,1.7,-9.0,41,22,10,30.35,30.23,16,4,16,0.00
2013-1-18,66.6,40.5,21.6,17.7,7.2,-7.6,64,32,10,30.33,30.19,66,5,66,0.00
2013-1-19,72.5,47.5,26.6,19.4,11.6,0.2,54,30,10,30.32,30.19,13,5,13,0.00
2013-1-20,73.2,48.3,28.8,27.8,18.6,4.9,71,40,10,30.27,30.11,14,5,14,0.00
2013-1-21,73.6,50.3,32.2,31.8,22.3,9.7,75,43,10,30.22,30.12,12,5,12,0.00
2013-1-22,74.8,50.7,32.4,37.4,21.2,4.9,81,42,10,30.29,30.19,18,5,18,0.00
2013-1-23,74.5,50.5,30.6,29.6,19.9,7.1,75,39,10,30.34,30.22,14,6,14,0.00
2013-1-24,68.0,55.2,44.2,40.0,32.9,24.2,65,45,20,30.32,30.25,14,5,14,0.00
2013-1-25,70.5,57.3,41.2,49.9,38.6,32.6,86,54,26,30.30,30.12,17,5,17,0.00
2013-1-26,65.3,55.2,49.8,53.6,48.7,41.4,97,80,45,30.14,30.03,34,8,34,0.20
2013-1-27,61.3,53.4,46.8,51.6,44.7,37.4,99,74,43,30.12,30.04,18,5,18,0.04
2013-1-28,56.1,47.7,33.3,43.2,37.5,29.4,96,69,38,30.05,29.98,35,13,35,0.02
2013-1-29,45.5,36.8,29.3,32.4,21.2,5.7,96,58,20,30.19,30.02,34,14,34,0.01
2013-1-30,52.7,36.8,23.2,26.9,12.1,-6.9,87,47,10,30.34,30.19,16,6,17,0.00
2013-1-31,59.4,39.4,22.8,29.2,17.9,4.0,86,52,11,30.27,30.17,14,5,14,0.00
2013-2-1,71.8,44.9,24.3,31.8,18.2,2.8,86,47,10,30.30,30.19,13,5,13,0.00
2013-2-2,72.3,48.7,28.6,28.2,17.8,0.2,78,40,10,30.33,30.21,13,5,13,0.00
2013-2-3,64.8,51.0,41.4,37.0,26.4,4.6,62,42,10,30.25,30.08,29,5,29,0.00
2013-2-4,67.1,50.1,35.6,36.4,31.7,24.1,83,54,20,30.14,30.03,15,5,15,0.00
2013-2-5,69.4,49.9,32.2,42.4,29.4,9.6,91,55,10,30.14,30.01,17,6,21,0.00
2013-2-6,66.2,49.5,35.4,37.9,28.5,7.5,84,52,10,30.13,30.01,23,7,23,0.00
2013-2-7,66.4,47.3,31.8,38.9,24.0,5.4,91,50,10,30.19,30.07,13,6,13,0.00
2013-2-8,65.5,49.9,33.1,26.9,12.6,-1.2,68,31,10,30.08,29.87,32,12,32,0.00
2013-2-9,51.1,39.7,26.2,33.2,21.8,6.6,93,52,18,30.08,29.87,36,14,36,0.00
2013-2-10,55.4,35.8,18.1,27.8,10.1,-10.1,90,47,10,30.08,29.96,27,8,27,0.00
2013-2-11,47.5,34.4,21.4,33.0,18.9,6.6,95,58,20,30.14,30.00,26,11,26,0.00
2013-2-12,47.7,33.3,23.0,31.1,20.0,-8.1,96,67,12,30.25,30.14,17,5,17,0.01
2013-2-13,59.4,37.6,17.1,25.5,12.2,-7.2,88,48,10,30.21,30.11,11,5,11,0.00
2013-2-14,64.6,41.8,21.9,22.6,12.5,-2.3,81,42,10,30.19,30.08,20,6,20,0.00
2013-2-15,65.5,45.5,27.7,23.4,9.5,-13.4,76,31,10,30.33,30.18,21,6,21,0.00
2013-2-16,67.5,44.7,24.1,14.6,5.4,-10.4,57,25,10,30.34,30.14,21,7,21,0.00
2013-2-17,70.2,48.3,25.5,12.5,5.7,-9.8,53,23,10,30.14,29.96,34,11,34,0.00
2013-2-18,66.9,48.1,27.3,14.4,4.6,-7.9,51,19,10,30.15,30.03,19,6,19,0.00
2013-2-19,63.7,49.3,32.7,33.6,10.4,-5.2,53,24,10,30.05,29.82,43,13,43,0.00
2013-2-20,48.6,43.4,40.8,26.5,19.1,-1.7,53,40,12,29.84,29.80,26,13,26,0.00
2013-2-21,48.9,36.4,21.9,31.2,25.4,19.0,94,68,32,30.06,29.97,12,4,12,0.04
2013-2-22,54.3,39.3,25.5,32.2,25.9,14.0,91,63,22,30.18,30.02,24,8,25,0.00
2013-2-23,65.7,43.8,21.9,30.9,16.5,-1.1,90,45,10,30.18,29.93,24,7,24,0.00
2013-2-24,53.2,40.3,22.3,19.4,4.0,-15.3,49,25,10,30.11,29.87,47,12,47,0.01
2013-2-25,70.9,41.8,17.4,12.4,5.5,-8.4,67,31,10,30.21,30.08,13,0,13,0.00
2013-2-26,25.3,22.3,19.9,13.4,11.8,9.8,67,64,57,30.10,30.04,2,1,2,0.00
2013-2-27,72.0,38.7,18.1,12.4,2.4,-12.5,71,27,10,30.24,30.13,2,0,2,0.00
2013-2-28,63.0,41.3,17.8,14.3,2.3,-13.3,63,26,10,30.36,30.22,14,3,14,0.00
2013-3-1,70.9,46.1,21.4,13.5,7.1,-6.6,61,27,10,30.37,30.26,15,2,15,0.00
2013-3-2,80.1,53.1,28.4,20.1,12.6,-2.6,60,26,10,30.40,30.22,17,2,17,0.00
2013-3-3,79.0,56.8,33.1,17.8,11.0,-4.2,50,20,10,30.25,30.07,28,6,28,0.00
2013-3-4,70.0,59.5,37.8,20.5,7.6,-2.3,49,14,10,30.19,30.00,38,14,38,0.00
2013-3-5,73.0,54.4,32.0,27.5,13.8,2.8,69,29,10,30.22,30.11,25,4,25,0.00
2013-3-6,78.4,61.0,45.1,20.0,12.6,1.3,29,16,10,30.17,30.03,32,6,32,0.00
2013-3-7,72.1,57.3,40.1,24.6,13.5,0.1,49,21,10,30.10,30.02,27,5,27,0.00
2013-3-8,60.3,51.5,37.9,43.2,32.0,14.1,86,50,19,30.06,29.90,36,14,36,0.11
2013-3-9,50.0,42.0,34.7,34.5,29.3,22.9,83,62,39,30.13,30.01,26,8,26,0.02
2013-3-10,59.2,45.7,32.9,35.5,23.9,1.9,89,51,10,30.21,30.11,18,4,18,0.00
2013-3-11,72.5,49.0,26.4,33.4,15.8,-2.7,85,38,10,30.24,30.09,12,2,12,0.00
2013-3-12,77.2,53.8,28.8,26.8,16.0,-0.1,74,32,10,30.21,30.11,13,3,13,0.00
2013-3-13,83.1,61.7,34.3,25.9,15.8,-0.9,60,22,10,30.28,30.16,12,2,12,0.00
2013-3-14,85.5,60.8,36.5,22.8,16.2,-1.9,52,22,10,30.29,30.16,27,3,27,0.00
2013-3-15,86.9,63.9,39.7,23.9,14.9,-2.2,40,18,10,30.22,30.07,26,5,26,0.00
2013-3-16,82.8,64.8,47.5,20.7,9.0,-5.4,20,11,10,30.11,29.94,41,8,41,0.00
2013-3-17,77.7,61.0,41.4,16.7,4.8,-9.3,20,10,10,30.09,29.97,33,10,33,0.00
2013-3-18,77.4,60.7,44.4,27.8,13.9,-0.5,47,19,10,30.13,30.03,26,6,26,0.00
2013-3-19,74.7,59.5,44.1,26.1,15.3,3.8,46,21,10,30.19,30.07,28,6,28,0.00
2013-3-20,80.2,59.9,40.6,27.0,17.9,3.9,56,25,10,30.19,30.03,27,5,27,0.00
2013-3-21,77.4,62.1,48.2,21.9,13.7,1.9,34,17,10,30.04,29.90,27,8,27,0.00
2013-3-22,74.3,62.4,49.5,22.5,12.7,3.2,32,15,10,29.99,29.85,34,9,34,0.00
2013-3-23,70.7,56.7,40.5,23.7,10.9,-8.1,42,19,10,30.11,29.96,32,9,32,0.00
2013-3-24,71.4,54.3,33.6,11.8,4.2,-10.0,27,14,10,30.12,29.98,27,8,27,0.00
2013-3-25,74.7,55.0,32.2,14.5,3.1,-12.5,29,13,10,30.13,30.03,14,3,14,0.00
2013-3-26,80.1,59.1,36.7,18.7,10.2,-2.7,38,17,10,30.13,30.00,26,5,26,0.00
2013-3-27,78.4,62.4,44.4,17.4,10.4,-3.1,25,13,10,30.15,30.05,25,6,25,0.00
2013-3-28,78.1,62.7,41.2,23.8,13.1,1.9,48,17,10,30.20,30.10,22,5,22,0.00
2013-3-29,80.6,64.9,45.0,23.0,12.6,-1.6,40,14,10,30.23,30.12,22,4,22,0.00
2013-3-30,78.4,63.6,48.9,17.4,8.9,-2.2,25,12,10,30.21,30.08,27,4,27,0.00
2013-3-31,80.2,60.4,41.5,23.1,15.3,0.2,46,21,10,30.18,30.06,27,4,27,0.00
2013-4-1,80.1,62.5,42.6,26.7,15.4,3.2,51,19,10,30.14,30.02,32,8,32,0.00
2013-4-2,73.6,57.8,38.7,20.1,11.9,-3.6,45,19,10,30.10,29.99,27,9,27,0.00
2013-4-3,76.3,57.8,39.2,16.9,10.6,-3.0,38,17,10,30.18,30.08,22,6,22,0.00
2013-4-4,82.9,62.4,39.4,20.8,14.3,1.3,45,19,10,30.22,30.08,16,2,16,0.00
2013-4-5,83.1,66.5,46.2,21.0,11.3,-2.3,25,12,10,30.14,30.01,31,8,31,0.00
2013-4-6,81.0,64.9,48.6,28.2,18.0,5.0,45,19,10,30.12,30.00,27,8,27,0.00
2013-4-7,80.2,64.0,45.3,29.4,18.8,4.8,52,21,10,30.06,29.93,29,8,29,0.00
2013-4-8,77.4,64.7,53.1,32.6,18.4,2.8,41,19,10,29.93,29.64,42,18,42,0.00
2013-4-9,59.2,49.9,41.4,38.7,22.4,0.6,74,40,10,30.01,29.73,35,13,35,0.02
2013-4-10,63.9,50.9,35.2,26.4,12.5,-0.4,61,27,10,30.11,29.98,30,7,30,0.00
2013-4-11,76.8,55.5,32.5,25.1,13.8,-1.9,66,26,10,30.11,29.91,22,3,22,0.00
2013-4-12,76.1,58.3,39.0,16.2,11.4,0.9,38,18,10,30.00,29.88,34,3,34,0.00
2013-4-13,79.2,62.0,41.0,19.8,13.9,0.9,41,18,10,30.01,29.90,30,4,30,0.00
2013-4-14,77.5,65.7,49.8,27.1,16.8,7.2,38,17,10,29.99,29.88,29,10,29,0.00
2013-4-15,79.0,66.5,50.0,27.2,17.1,7.8,37,16,10,29.97,29.90,31,9,31,0.00
2013-4-16,78.6,68.0,56.3,38.4,17.2,3.5,41,16,10,29.99,29.90,34,13,34,0.00
2013-4-17,64.2,57.3,43.5,37.1,11.6,-9.4,40,18,10,30.11,29.90,37,13,37,0.00
2013-4-18,67.8,49.7,30.6,9.0,-0.4,-14.0,29,13,10,30.23,30.09,16,4,16,0.00
2013-4-19,75.4,53.1,27.3,15.1,1.3,-14.9,25,12,10,30.25,30.06,20,3,20,0.00
2013-4-20,79.7,60.4,36.1,18.4,3.6,-15.1,10,10,10,30.14,30.03,30,7,30,0.00
2013-4-21,84.6,65.8,41.0,22.1,9.8,-7.0,20,11,10,30.20,30.08,21,4,21,0.00
2013-4-22,86.2,71.0,45.3,23.3,11.9,-3.0,20,10,10,30.15,29.99,24,7,24,0.00
2013-4-23,82.8,68.0,48.6,20.7,9.5,-5.1,13,10,10,30.08,29.98,30,7,30,0.00
2013-4-24,84.0,69.1,44.4,21.7,12.9,0.1,27,12,10,30.11,30.01,33,5,33,0.00
2013-4-25,79.3,68.2,50.2,17.8,9.8,-3.3,15,10,10,30.19,30.03,37,10,37,0.00
2013-4-26,82.8,62.5,36.7,20.7,12.5,-2.0,42,16,10,30.24,30.13,24,5,24,0.00
2013-4-27,84.0,66.9,42.3,21.7,13.1,-2.6,33,13,10,30.22,30.07,24,4,24,0.00
2013-4-28,87.6,70.0,45.9,24.3,13.2,-2.0,23,11,10,30.11,29.95,21,3,21,0.00
2013-4-29,89.6,71.2,49.3,25.9,11.9,-4.9,10,10,10,30.04,29.90,32,5,32,0.00
2013-4-30,87.6,73.7,51.8,24.4,13.9,-1.9,13,10,10,30.02,29.93,36,8,36,0.00
2013-5-1,84.6,70.3,53.1,22.1,11.5,-2.0,13,10,10,30.18,30.00,35,6,35,0.00
2013-5-2,82.9,67.4,46.8,20.8,11.0,-2.2,24,11,10,30.27,30.16,23,7,23,0.00
2013-5-3,81.9,64.4,44.8,20.0,8.7,-1.5,25,11,10,30.26,30.00,21,6,21,0.00
2013-5-4,83.7,68.7,46.4,21.4,11.3,-3.7,17,11,10,30.03,29.93,26,7,26,0.00
2013-5-5,81.7,70.3,60.3,19.7,11.5,3.5,14,10,10,30.10,30.02,30,6,30,0.00
2013-5-6,77.9,66.4,49.6,44.7,20.2,9.7,69,20,10,30.13,30.05,24,6,24,0.01
2013-5-7,77.4,63.9,52.0,31.2,20.7,5.4,38,21,10,30.13,30.03,26,6,26,0.00
2013-5-8,78.3,64.3,47.8,32.4,19.5,4.3,53,22,10,30.15,29.34,30,9,30,0.00
2013-5-9,78.3,64.7,46.9,36.7,21.7,5.7,64,25,10,30.14,29.35,27,5,27,0.00
2013-5-10,79.7,63.6,46.0,38.7,21.5,10.4,60,24,10,30.22,30.08,26,5,26,0.00
2013-5-11,79.2,64.5,43.7,36.8,23.6,11.0,65,28,10,30.26,30.16,23,7,23,0.00
2013-5-12,82.0,67.2,45.1,31.9,20.0,3.2,52,21,10,30.29,30.13,31,8,31,0.00
2013-5-13,86.2,69.2,45.5,23.2,15.9,0.6,36,14,10,30.26,30.11,31,6,31,0.00
2013-5-14,89.1,72.8,50.5,28.4,18.5,0.6,40,14,10,30.18,30.04,23,4,23,0.00
2013-5-15,88.5,76.3,62.8,24.8,17.9,9.3,18,11,10,30.18,30.05,30,10,30,0.00
2013-5-16,89.1,75.0,58.5,25.5,17.6,8.2,18,12,10,30.14,30.00,26,6,26,0.00
2013-5-17,86.9,73.3,51.4,23.7,17.1,7.0,29,13,10,30.10,30.01,29,6,29,0.00
2013-5-18,84.0,72.3,58.3,22.8,16.6,7.9,25,12,10,30.11,30.02,30,8,30,0.00
2013-5-19,86.9,70.2,49.3,29.6,20.0,2.8,45,18,10,30.10,29.98,24,5,24,0.00
2013-5-20,86.9,71.4,50.5,27.2,18.4,0.7,38,15,10,30.08,29.97,38,8,38,0.00
2013-5-21,89.1,70.2,45.7,25.4,13.8,-0.8,25,12,10,30.11,29.98,23,4,23,0.00
2013-5-22,90.9,74.5,50.9,26.9,15.1,-0.8,19,10,10,30.04,29.93,22,5,22,0.00
2013-5-23,91.0,75.9,50.9,27.0,16.5,-1.2,19,11,10,30.06,29.28,32,6,32,0.00
2013-5-24,91.0,75.0,52.5,34.1,22.3,5.7,46,16,10,30.13,30.04,32,4,32,0.00
2013-5-25,89.6,73.8,50.0,25.8,17.7,4.5,34,13,10,30.15,30.06,30,6,30,0.00
2013-5-26,88.9,72.5,47.1,25.4,15.2,-0.6,26,12,10,30.13,30.06,27,6,27,0.00
2013-5-27,90.9,72.7,49.6,26.9,14.3,-1.9,20,11,10,30.10,29.94,25,5,25,0.00
2013-5-28,88.3,72.0,46.4,24.9,13.4,-3.7,20,11,10,30.01,29.85,32,8,32,0.00
2013-5-29,87.3,72.5,54.1,25.7,17.5,3.9,33,13,10,29.98,29.89,24,6,27,0.00
2013-5-30,90.3,75.9,57.9,47.9,29.2,11.9,64,23,10,30.06,28.16,38,5,38,0.00
2013-5-31,93.7,78.3,58.1,50.1,31.1,15.1,56,23,10,30.10,29.97,25,6,25,0.00
2013-6-1,83.3,77.3,73.0,21.1,16.6,13.2,10,10,10,30.04,29.99,10,2,10,0.00
2013-6-2,98.6,81.7,61.3,32.4,25.1,10.0,30,14,10,30.05,29.94,27,5,27,0.00
2013-6-3,94.5,80.4,59.4,29.6,21.6,10.1,26,12,10,30.08,29.98,26,6,26,0.00
2013-6-4,94.5,79.1,60.3,33.2,23.3,9.0,36,14,10,30.10,30.01,29,6,29,0.00
2013-6-5,94.8,77.8,56.5,30.6,23.0,6.0,35,15,10,30.11,29.98,25,7,25,0.00
2013-6-6,97.0,79.4,54.5,31.3,18.3,-0.1,13,10,10,30.07,29.95,21,4,21,0.00
2013-6-7,99.7,83.1,58.8,33.5,21.5,5.2,16,10,10,30.06,29.67,24,4,24,0.00
2013-6-8,97.9,84.2,66.7,32.0,21.7,8.5,10,10,10,29.85,29.76,28,9,28,0.00
2013-6-9,97.2,82.7,68.7,31.5,23.0,10.4,22,11,10,29.89,29.80,25,7,25,0.00
2013-6-10,100.2,83.4,61.3,33.9,22.3,6.7,18,11,10,29.91,29.78,31,5,31,0.00
2013-6-11,101.3,86.1,63.7,34.6,23.5,7.5,14,10,10,29.90,29.79,27,6,27,0.00
2013-6-12,101.8,86.3,63.3,35.2,23.5,6.1,12,10,10,29.93,29.80,27,8,27,0.00
2013-6-13,96.6,85.5,72.7,42.4,28.7,15.8,33,14,10,29.92,29.79,30,10,30,0.00
2013-6-14,95.2,79.5,0.0,53.4,41.3,15.4,57,28,10,29.99,29.79,24,4,24,0.02
2013-6-15,94.1,77.1,0.0,61.6,47.4,15.4,76,41,10,30.05,29.85,24,2,24,0.00
2013-6-16,96.3,79.9,62.6,59.7,38.0,15.8,77,32,10,30.02,29.85,21,3,21,0.04
2013-6-17,97.2,80.0,60.1,31.5,24.5,8.2,29,14,10,29.96,29.84,27,5,27,0.00
2013-6-18,97.5,80.0,56.8,31.9,20.7,5.6,22,11,10,29.92,29.80,26,5,26,0.00
2013-6-19,98.6,81.4,58.6,32.7,20.4,4.8,18,10,10,29.86,29.76,31,8,31,0.00
2013-6-20,97.2,79.9,52.3,31.6,20.2,3.2,25,11,10,29.88,29.80,34,7,34,0.00
2013-6-21,97.5,81.3,58.8,36.4,25.8,9.9,40,15,10,29.92,29.82,32,6,32,0.00
2013-6-22,96.1,81.1,61.3,30.8,22.9,10.1,27,12,10,29.91,29.79,30,7,30,0.00
2013-6-23,95.0,80.5,59.9,29.9,22.0,7.9,23,12,10,29.92,29.84,36,8,36,0.00
2013-6-24,95.0,81.8,66.4,30.0,21.6,11.1,21,11,10,29.99,29.89,36,8,36,0.00
2013-6-25,95.4,80.1,59.7,35.4,25.2,10.4,39,15,10,30.05,29.95,29,6,29,0.00
2013-6-26,96.3,82.1,63.5,30.9,20.5,7.4,13,10,10,30.12,30.01,21,5,21,0.00
2013-6-27,99.1,85.2,68.0,40.2,25.4,9.9,31,12,10,30.14,30.01,26,8,26,0.00
2013-6-28,104.4,87.2,68.0,37.1,24.1,9.4,11,10,10,30.08,29.95,28,4,28,0.00
2013-6-29,102.4,85.7,67.3,35.6,24.0,10.7,16,11,10,30.05,29.90,17,3,17,0.00
2013-6-30,100.6,82.1,0.0,62.1,35.4,15.4,72,22,10,29.99,29.79,32,6,32,0.03
2013-7-1,98.2,89.8,78.1,50.6,35.6,24.5,35,16,10,29.91,29.76,25,6,25,0.00
2013-7-2,95.0,80.5,66.4,59.7,44.9,27.1,78,37,10,30.00,29.80,36,8,36,0.01
2013-7-3,96.8,82.8,66.9,56.3,39.8,24.9,59,27,10,29.94,29.71,31,7,31,0.00
2013-7-4,97.0,84.1,67.6,60.4,42.2,26.7,77,30,10,29.84,29.70,26,8,26,0.00
2013-7-5,94.1,75.8,64.6,71.2,57.2,7.0,99,60,10,29.87,29.75,34,3,34,1.41
2013-7-6,95.4,80.0,64.8,65.7,54.1,30.5,91,50,11,29.80,29.69,21,2,21,0.00
2013-7-7,99.0,80.6,67.5,64.2,52.9,29.3,79,46,10,29.86,29.72,25,3,27,0.02
2013-7-8,98.8,82.0,71.6,65.3,52.7,28.6,80,43,10,29.92,29.80,24,3,24,0.01
2013-7-9,94.5,80.4,63.7,68.5,57.9,40.8,95,53,17,29.97,29.81,53,8,53,0.56
2013-7-10,89.8,76.1,67.5,71.2,64.5,56.1,99,71,34,29.95,29.81,24,3,24,0.05
2013-7-11,88.0,75.8,66.4,68.3,63.2,54.0,96,68,33,29.93,29.81,21,2,21,0.06
2013-7-12,90.5,80.5,67.8,68.1,57.5,43.7,90,50,20,29.90,29.77,21,4,21,0.04
2013-7-13,92.8,80.0,69.4,65.0,55.8,39.8,78,49,16,29.90,29.79,25,4,25,0.11
2013-7-14,81.0,75.0,74.7,60.8,60.4,56.4,62,61,43,29.86,29.81,1,0,1,0.00
2013-7-15,92.3,79.8,68.0,64.2,55.9,42.1,82,48,18,29.87,29.73,22,4,26,0.00
2013-7-16,69.8,68.0,66.0,67.0,65.0,62.3,100,90,78,29.94,29.85,12,2,18,0.39
2013-7-17,88.9,75.7,65.5,69.4,55.8,37.8,100,59,17,29.96,29.85,21,4,21,0.01
2013-7-18,84.2,75.3,64.4,61.2,55.2,47.6,83,52,29,29.94,29.82,17,6,20,0.00
2013-7-19,75.4,72.4,69.6,65.6,63.7,61.3,87,74,62,29.95,29.92,3,0,3,0.04
2013-7-20,92.5,74.5,68.2,67.0,62.8,-8.0,93,70,2,29.93,29.87,55,3,55,0.00
2013-7-21,85.8,78.7,69.4,63.1,57.2,48.5,76,50,28,30.02,29.92,19,7,19,0.00
2013-7-22,87.8,74.8,64.8,64.5,58.7,46.9,82,60,25,30.05,29.97,21,4,21,0.00
2013-7-23,88.9,76.9,67.5,63.7,58.6,43.7,85,58,22,30.06,29.94,22,7,22,0.00
2013-7-24,86.4,74.8,68.0,67.4,62.6,54.6,90,68,35,30.04,29.93,16,3,16,0.04
2013-7-25,86.0,73.5,67.5,67.8,64.5,56.6,93,75,37,30.10,30.00,25,2,25,0.08
2013-7-26,89.1,73.9,65.8,70.2,64.2,52.1,100,76,30,30.14,30.07,30,3,30,0.33
2013-7-27,87.3,74.2,64.6,70.9,63.8,56.6,100,73,36,30.10,29.97,23,1,23,0.00
2013-7-28,90.7,77.8,64.9,64.0,51.9,27.7,91,50,12,29.99,29.91,22,4,22,0.00
2013-7-29,92.1,78.8,65.7,56.7,45.4,26.0,71,37,10,30.10,29.98,18,2,18,0.00
2013-7-30,91.4,78.9,64.4,57.4,48.2,26.3,73,40,10,30.17,30.06,11,1,11,0.00
2013-7-31,90.0,79.5,70.0,61.7,52.6,34.6,69,44,15,30.13,30.03,12,1,12,0.00
2013-8-1,82.2,73.4,67.1,64.5,60.2,53.0,81,64,42,30.13,30.01,26,2,27,0.02
2013-8-2,87.3,74.8,63.9,65.7,58.5,48.5,90,60,32,30.06,29.99,30,3,30,0.02
2013-8-3,93.2,77.8,60.8,59.2,49.9,27.3,79,44,10,30.08,29.99,19,2,19,0.00
2013-8-4,88.0,78.7,69.4,62.0,55.4,42.5,72,48,22,30.08,29.99,14,3,14,0.00
2013-8-5,84.2,72.6,63.7,65.1,58.7,48.5,90,65,30,30.14,29.99,44,4,44,0.40
2013-8-6,82.4,69.5,61.0,64.7,60.6,50.7,94,75,36,30.06,30.00,19,2,19,0.37
2013-8-7,86.5,72.8,59.9,61.8,53.2,36.9,93,57,18,30.08,29.99,21,5,21,0.00
2013-8-8,90.9,75.1,58.3,55.9,42.4,23.7,82,42,10,30.04,29.94,16,2,16,0.00
2013-8-9,92.8,75.9,55.2,49.8,38.1,21.1,73,35,10,30.03,29.94,20,2,20,0.00
2013-8-10,91.8,78.0,60.1,56.7,40.1,22.6,59,31,10,30.10,29.98,26,5,26,0.00
2013-8-11,89.4,76.5,65.8,63.9,57.3,47.3,80,54,24,30.07,29.96,24,3,24,0.00
2013-8-12,67.8,64.3,61.9,63.1,61.0,59.0,92,89,80,30.01,29.98,2,0,2,0.00
2013-8-14,79.3,74.7,70.7,66.3,60.8,53.3,77,63,46,30.03,29.91,22,3,22,0.22
2013-8-15,94.3,80.0,68.0,64.6,51.6,28.5,83,46,10,30.01,29.90,34,2,34,0.02
2013-8-16,96.3,79.5,61.2,63.2,49.5,27.8,86,45,10,30.02,29.91,18,3,18,0.00
2013-8-17,97.2,81.7,63.0,60.6,43.8,23.9,80,36,10,30.01,29.86,21,2,21,0.00
2013-8-18,96.3,79.8,68.2,59.3,47.4,27.3,63,36,10,30.00,29.90,24,4,24,0.01
2013-8-19,94.3,79.5,65.3,60.8,47.0,25.9,79,40,10,30.00,29.87,12,3,12,0.00
2013-8-20,95.7,79.3,69.4,60.2,49.6,28.5,71,41,10,30.02,29.86,28,5,28,0.00
2013-8-21,90.9,76.9,65.7,65.5,53.8,35.1,86,52,14,29.99,29.88,24,3,24,0.05
2013-8-22,91.6,77.2,61.5,64.7,50.9,30.3,91,47,12,29.99,29.87,21,4,21,0.00
2013-8-23,92.3,76.5,60.3,64.4,46.0,25.1,92,46,10,29.97,29.79,21,4,21,0.19
2013-8-24,78.6,71.7,63.5,64.7,60.4,53.3,96,70,46,29.98,29.88,24,4,24,0.22
2013-8-25,85.8,73.7,67.1,66.7,62.7,53.8,91,71,34,30.00,29.90,21,4,21,0.01
2013-8-26,91.6,78.1,68.0,70.1,58.1,30.9,95,59,14,29.99,29.85,25,4,25,0.01
2013-8-27,92.3,78.4,61.9,65.1,49.0,25.9,91,47,10,29.94,29.82,27,5,27,0.00
2013-8-28,87.6,76.4,64.2,62.5,56.4,46.0,78,53,24,30.00,29.87,23,5,23,0.00
2013-8-29,77.4,71.5,68.2,67.8,64.9,60.8,95,80,58,30.08,29.99,14,3,14,0.07
2013-8-30,124.3,75.2,66.7,69.5,60.9,12.0,100,67,2,30.07,29.96,51,3,51,0.00
2013-8-31,91.6,75.9,61.3,66.9,57.2,42.1,94,58,19,30.01,29.88,21,2,21,0.08
2013-9-1,92.3,77.7,63.3,63.4,53.9,35.3,88,51,14,29.96,29.85,17,3,18,0.00
2013-9-2,93.9,77.5,65.1,63.9,53.5,33.0,84,51,12,30.00,29.85,28,3,28,0.13
2013-9-3,91.0,76.6,63.0,65.8,54.0,27.8,88,55,11,30.01,29.88,25,4,25,0.01
2013-9-4,92.7,76.3,59.9,65.0,47.0,24.5,93,49,10,30.01,29.91,27,5,27,0.01
2013-9-5,93.0,76.4,59.4,58.6,44.6,24.9,83,43,10,30.01,29.91,27,4,27,0.00
2013-9-6,92.3,76.2,60.8,57.4,47.1,27.3,80,45,10,30.01,29.89,20,5,20,0.00
2013-9-7,74.3,69.3,66.7,65.7,62.2,54.0,93,78,51,30.01,29.90,11,1,11,0.25
2013-9-8,82.2,69.3,64.8,67.8,63.7,58.5,97,84,45,29.93,29.80,17,2,17,0.64
2013-9-9,78.4,67.7,54.9,67.3,64.6,6.5,100,91,14,29.85,29.78,55,3,55,1.55
2013-9-10,82.8,70.5,61.9,66.5,57.5,38.7,100,69,22,29.93,29.82,20,2,21,0.01
2013-9-11,85.3,70.9,57.9,62.7,51.4,30.9,95,58,15,29.98,29.88,18,3,18,0.00
2013-9-12,88.5,72.2,58.1,64.4,56.2,48.1,91,63,25,29.92,29.78,19,3,19,0.04
2013-9-13,89.2,75.1,62.8,67.2,55.8,28.7,100,61,12,29.86,29.72,17,3,17,0.01
2013-9-14,90.1,76.0,60.8,64.3,54.2,32.2,91,53,14,29.83,29.72,12,2,12,0.00
2013-9-15,91.4,76.7,62.6,65.1,52.9,29.3,86,50,11,29.90,29.79,18,3,18,0.46
2013-9-16,90.9,77.0,63.1,65.6,55.1,32.6,91,54,14,29.93,29.82,12,2,12,0.01
2013-9-17,92.1,76.9,63.0,61.6,51.2,24.9,85,49,10,29.91,29.76,12,2,12,0.00
2013-9-18,92.1,76.2,60.6,57.4,42.6,21.9,85,41,10,29.85,29.72,18,1,19,0.00
2013-9-19,91.8,75.9,60.6,51.8,39.1,22.5,70,35,10,29.85,29.74,11,3,11,0.00
2013-9-20,91.8,70.2,58.3,61.4,52.2,33.9,87,57,13,29.94,29.82,36,2,36,0.63
2013-9-21,88.0,73.9,57.7,62.3,50.4,28.7,92,50,12,29.93,29.77,22,4,22,0.00
2013-9-22,86.0,73.4,60.6,58.8,51.8,40.8,77,50,21,29.79,29.69,27,6,27,0.00
2013-9-23,87.1,67.6,48.0,49.0,35.8,18.0,84,41,10,29.94,29.79,11,1,11,0.73
2013-9-24,90.0,64.3,48.7,42.9,32.6,3.8,74,40,6,29.99,29.85,9,1,10,0.96
2013-9-25,87.6,70.1,51.8,35.7,25.3,14.4,50,22,10,29.88,29.74,22,5,23,0.00
2013-9-26,85.1,69.1,48.7,52.7,30.6,15.1,59,30,10,29.81,29.72,27,5,27,0.00
2013-9-27,76.3,66.2,52.2,52.9,42.3,24.3,80,45,15,29.93,29.75,23,6,23,0.00
2013-9-28,82.4,62.4,44.4,42.2,30.4,13.0,69,38,10,30.02,29.93,16,2,16,0.00
2013-9-29,86.9,66.9,46.9,44.9,32.7,18.4,81,38,10,30.05,29.93,12,2,12,0.00
2013-9-30,87.4,67.7,46.0,36.6,26.2,10.1,66,28,10,29.98,29.85,17,3,17,0.00
2013-10-1,86.5,68.1,46.0,36.4,26.7,10.8,55,26,10,29.97,29.87,17,3,18,0.00
2013-10-2,85.1,67.9,51.6,40.9,29.1,11.8,60,29,10,29.97,29.84,19,2,19,0.00
2013-10-3,86.2,67.9,50.7,45.0,31.6,13.8,68,33,10,29.90,29.76,22,4,23,0.00
2013-10-4,82.0,66.7,50.2,48.2,32.1,12.5,83,36,10,29.97,29.83,24,4,24,0.00
2013-10-5,78.4,59.9,40.6,34.0,16.4,-1.1,56,23,10,30.05,29.95,12,3,12,0.00
2013-10-6,81.5,61.8,38.1,21.2,13.1,1.2,46,18,10,30.09,29.98,21,3,21,0.00
2013-10-7,86.7,66.1,40.5,29.0,18.4,0.3,47,19,10,30.05,29.90,12,3,19,0.00
2013-10-8,82.2,66.4,50.0,31.8,21.3,5.6,48,21,10,29.93,29.81,22,5,22,0.00
2013-10-9,80.2,68.1,49.3,41.7,25.7,12.5,52,24,10,29.84,29.74,41,11,41,0.00
2013-10-10,75.7,60.4,44.1,43.4,34.7,15.2,74,41,10,29.89,29.74,57,10,57,0.00
2013-10-11,76.6,55.6,36.5,43.2,30.2,13.0,89,49,10,29.92,29.83,12,1,12,0.00
2013-10-12,82.4,60.4,37.6,38.1,26.0,11.1,77,37,10,29.93,29.82,29,3,29,0.00
2013-10-13,82.8,66.5,47.7,45.1,31.0,16.2,68,34,10,29.96,29.87,33,7,33,0.00
2013-10-14,78.4,66.3,52.7,51.5,39.5,19.3,79,43,12,29.99,29.88,25,5,25,0.00
2013-10-15,79.2,61.6,44.8,41.7,27.6,11.9,78,36,10,29.93,29.81,21,3,21,0.00
2013-10-16,77.0,57.3,39.2,25.9,13.8,-4.2,53,23,10,29.99,29.91,24,3,24,0.00
2013-10-17,78.4,54.9,32.9,17.4,10.5,-3.7,47,21,10,29.99,29.85,17,3,17,0.00
2013-10-18,77.5,56.0,37.2,16.7,11.8,0.1,39,20,10,29.97,29.88,12,3,12,0.00
2013-10-19,81.3,57.5,34.9,19.6,13.1,-3.4,50,22,10,30.01,29.89,12,2,12,0.00
2013-10-20,79.0,57.6,36.5,17.7,8.8,-3.6,33,16,10,29.95,29.83,21,4,21,0.00
2013-10-21,80.8,58.4,36.0,19.2,8.6,-4.9,34,15,10,29.99,29.89,16,2,16,0.00
2013-10-22,81.0,59.1,34.9,19.3,11.2,-1.3,40,17,10,30.03,29.91,20,2,20,0.00
2013-10-23,83.8,62.4,40.1,23.5,17.1,5.6,48,21,10,29.97,29.85,12,2,12,0.00
2013-10-24,84.9,65.3,44.8,24.4,18.0,6.3,41,19,10,29.98,29.85,28,4,28,0.00
2013-10-25,82.8,62.8,42.1,25.1,17.5,4.5,49,21,10,30.04,29.93,18,3,18,0.00
2013-10-26,81.5,59.6,39.0,24.1,15.8,0.2,53,23,10,30.07,29.96,11,1,11,0.00
2013-10-27,83.3,63.2,42.3,29.3,16.7,2.5,53,20,10,30.00,29.80,21,3,21,0.00
2013-10-28,74.5,60.7,43.2,29.0,18.0,4.6,56,23,10,29.91,29.82,29,6,29,0.00
2013-10-29,75.9,60.3,47.3,38.9,20.5,3.6,62,26,10,29.91,29.80,30,5,30,0.00
2013-10-30,75.7,55.6,38.8,42.1,30.3,9.9,72,44,10,29.95,29.82,54,7,54,0.00
2013-10-31,72.3,49.9,30.0,29.7,14.1,-7.3,79,34,10,30.00,29.90,19,3,19,0.00
2013-11-1,75.0,51.0,30.4,14.8,8.0,-5.8,45,21,10,30.07,29.96,11,1,11,0.00
2013-11-2,79.2,57.6,32.9,24.2,10.3,-0.2,40,18,10,30.03,29.86,29,2,29,0.00
2013-11-3,75.2,60.7,46.2,51.6,39.1,25.2,92,51,17,29.91,29.74,29,5,29,0.00
2013-11-4,75.7,59.3,42.8,43.1,34.9,17.4,80,46,11,29.81,29.69,56,4,56,0.00
2013-11-5,75.7,55.5,40.8,42.8,32.9,9.6,79,47,10,30.04,26.85,24,4,24,0.00
2013-11-6,69.3,51.0,35.1,35.0,16.2,-0.4,85,35,10,30.14,30.04,21,4,21,0.00
2013-11-7,74.3,53.6,32.5,22.5,13.2,0.1,47,24,10,30.16,30.00,20,4,20,0.00
2013-11-8,77.5,56.1,37.2,29.9,22.1,10.1,66,33,10,30.05,29.91,11,1,11,0.00
2013-11-9,78.4,57.3,38.5,31.6,23.8,10.7,65,35,10,30.05,29.95,11,1,11,0.00
2013-11-10,80.8,58.8,38.7,32.9,24.0,10.7,72,35,10,30.08,29.96,17,2,17,0.00
2013-11-11,82.6,60.1,39.4,35.0,24.0,12.3,65,32,10,30.07,29.95,17,2,17,0.00
2013-11-12,77.0,59.7,42.8,40.2,34.5,21.9,64,42,17,30.17,30.06,24,7,24,0.00
2013-11-13,71.4,57.1,44.6,39.5,36.7,32.6,69,49,24,30.16,29.96,12,3,12,0.00
2013-11-14,77.9,55.9,40.6,41.6,28.4,12.1,82,45,10,29.99,29.84,20,2,20,0.00
2013-11-15,70.7,60.4,43.7,47.2,39.5,23.2,71,48,24,29.85,29.65,34,8,34,0.00
2013-11-16,70.2,60.6,50.0,44.5,34.6,9.9,68,42,10,29.85,29.68,27,8,27,0.00
2013-11-17,72.7,55.2,38.8,45.0,35.3,20.5,88,53,14,29.99,29.84,20,2,20,0.00
2013-11-18,75.2,57.3,41.4,48.4,31.3,9.6,88,46,10,30.03,29.91,19,2,19,0.00
2013-11-19,77.7,55.4,35.8,39.6,22.7,3.2,81,37,10,29.97,29.79,23,2,23,0.00
2013-11-20,74.1,56.5,40.3,30.3,20.1,9.0,55,28,10,29.85,29.75,26,3,26,0.00
2013-11-21,75.7,57.7,39.6,43.7,35.2,15.2,70,45,10,29.89,29.81,52,4,52,0.00
2013-11-22,66.2,59.5,50.7,52.8,43.7,34.3,92,57,35,29.86,29.78,33,12,33,0.11
2013-11-23,77.4,45.8,42.8,43.3,40.8,11.4,92,83,8,29.95,26.85,47,6,47,0.20
2013-11-24,80.6,46.2,35.2,37.8,34.3,-1.4,88,65,4,30.01,26.85,51,3,51,0.01
2013-11-25,57.4,41.2,27.3,36.0,30.7,25.1,93,70,34,30.09,29.96,11,2,11,0.00
2013-11-26,59.4,44.0,28.8,36.5,22.6,11.6,91,51,17,30.16,30.05,22,5,22,0.00
2013-11-27,58.5,43.7,33.4,24.8,16.4,-2.2,63,39,10,30.10,29.93,12,2,12,0.00
2013-11-28,69.3,46.0,25.3,32.0,22.3,10.1,84,49,10,30.02,29.91,11,2,11,0.00
2013-11-29,73.9,51.6,33.6,39.1,27.3,8.5,86,48,10,30.09,29.98,11,1,11,0.00
2013-11-30,72.1,52.6,39.4,40.5,30.0,10.7,82,50,10,30.08,29.97,8,0,9,0.00
2013-12-1,68.0,53.3,42.3,35.7,30.4,18.6,65,44,16,30.11,30.01,4,0,4,0.00
2013-12-2,73.6,52.1,33.8,32.8,19.5,-2.9,83,38,10,30.05,29.85,16,2,16,0.00
2013-12-3,70.7,53.7,34.0,39.6,21.9,2.4,55,34,10,29.85,29.70,26,5,26,0.00
2013-12-4,65.3,56.9,47.7,41.3,28.0,3.1,68,39,10,29.80,29.70,36,12,36,0.00
2013-12-5,49.8,43.7,33.4,42.5,36.4,29.0,90,76,56,29.92,29.74,31,9,31,0.08
2013-12-6,52.9,35.5,22.8,32.7,23.3,16.4,90,67,24,29.99,29.88,8,1,8,0.01
2013-12-7,59.2,40.1,21.9,30.7,12.1,-7.4,89,45,10,29.93,29.81,26,5,26,0.00
2013-12-8,56.1,43.5,33.1,31.6,25.5,15.5,74,51,20,29.96,29.85,24,8,24,0.00
2013-12-9,54.1,41.2,28.2,34.2,19.5,-6.9,87,50,10,30.11,29.90,12,2,12,0.00
2013-12-10,59.2,39.8,23.4,19.2,7.3,-5.8,62,33,10,30.11,29.96,11,2,11,0.00
2013-12-11,67.5,46.4,26.2,34.1,23.4,9.8,74,45,16,30.11,30.01,17,2,17,0.00
2013-12-12,65.5,49.8,36.0,41.7,29.7,14.5,78,47,23,30.11,29.93,20,4,20,0.00
2013-12-13,59.4,42.9,29.3,31.0,25.5,14.3,84,56,17,30.03,29.94,21,6,21,0.00
2013-12-14,59.5,41.4,24.8,33.8,16.2,-1.8,86,46,10,30.15,30.01,12,3,12,0.00
2013-12-15,65.7,43.3,25.5,25.2,11.8,-3.0,73,36,10,30.17,30.05,12,2,12,0.00
2013-12-16,73.2,47.6,25.3,23.9,11.2,-4.2,67,31,10,30.15,30.05,8,1,11,0.00
2013-12-17,77.2,49.3,29.7,20.4,13.4,-2.6,59,30,10,30.17,30.03,8,1,11,0.00
2013-12-18,68.9,50.0,34.3,20.4,12.8,0.2,53,27,10,30.06,29.81,8,0,11,0.00
2013-12-19,64.8,54.9,41.7,18.2,5.5,-3.0,34,14,10,29.82,29.65,22,5,30,0.00
2013-12-20,51.6,42.9,36.9,39.1,28.7,8.8,90,61,24,29.71,29.55,17,6,24,0.25
2013-12-21,48.6,42.1,37.2,35.8,32.0,26.2,83,68,42,29.89,29.68,22,10,31,0.00
2013-12-22,54.7,40.8,28.0,36.0,28.5,19.4,91,66,28,30.12,29.88,14,1,21,0.00
2013-12-23,61.7,39.7,23.7,33.8,17.8,0.6,91,54,10,30.20,30.10,11,2,16,0.00
2013-12-24,64.8,40.6,22.8,28.8,17.1,2.4,85,50,10,30.14,29.99,6,0,10,0.00
2013-12-25,76.1,45.5,25.7,26.6,16.9,3.2,83,45,10,30.13,29.92,14,2,23,0.00
2013-12-26,59.4,43.6,28.8,28.2,23.6,18.8,72,48,27,30.14,30.01,6,1,6,1.90
2013-12-27,62.8,40.0,21.6,28.5,21.3,16.8,85,52,21,30.12,30.01,15,3,15,0.12
2013-12-28,64.8,42.0,22.1,30.0,22.8,16.8,85,52,21,30.05,29.85,13,3,13,0.00
2013-12-29,66.6,45.7,30.2,34.4,24.4,19.8,73,47,21,30.01,29.84,9,3,9,0.00
2013-12-30,68.8,41.9,23.9,31.1,21.4,17.5,82,52,16,30.12,30.01,9,3,9,0.00
2013-12-31,74.0,43.0,22.7,30.6,20.0,16.4,80,47,15,30.11,29.98,8,3,8,0.00
2014-1-1,70.2,45.4,28.6,27.1,21.1,17.5,66,43,17,30.03,29.94,9,3,9,0.00
2014-1-2,68.2,45.9,27.4,27.2,22.0,17.5,71,44,18,30.09,29.97,12,3,12,0.00